sensor_id;sensor_type;location;lat;lon;timestamp;pressure;altitude;pressure_sealevel;temperature
65765;BMP180;52915;53.718;19.946;2023-06-19T00:03:15;100314.60;;;15.70
65765;BMP180;52915;53.718;19.946;2023-06-19T00:08:20;100319.20;;;15.70
65765;BMP180;52915;53.718;19.946;2023-06-19T00:13:24;100313.00;;;15.42
65765;BMP180;52915;53.718;19.946;2023-06-19T00:18:29;100308.00;;;15.30
65765;BMP180;52915;53.718;19.946;2023-06-19T00:23:34;100305.60;;;15.22
65765;BMP180;52915;53.718;19.946;2023-06-19T00:28:38;100309.20;;;15.20
65765;BMP180;52915;53.718;19.946;2023-06-19T00:33:45;100312.40;;;15.20
65765;BMP180;52915;53.718;19.946;2023-06-19T00:38:51;100306.60;;;15.30
65765;BMP180;52915;53.718;19.946;2023-06-19T00:43:56;100314.80;;;15.10
65765;BMP180;52915;53.718;19.946;2023-06-19T00:49:01;100305.00;;;15.00
65765;BMP180;52915;53.718;19.946;2023-06-19T00:54:05;100308.20;;;15.00
65765;BMP180;52915;53.718;19.946;2023-06-19T00:59:17;100307.60;;;15.10
65765;BMP180;52915;53.718;19.946;2023-06-19T01:04:22;100311.00;;;15.00
65765;BMP180;52915;53.718;19.946;2023-06-19T01:09:34;100304.20;;;14.70
65765;BMP180;52915;53.718;19.946;2023-06-19T01:14:58;100307.00;;;14.60
65765;BMP180;52915;53.718;19.946;2023-06-19T01:20:04;100307.40;;;14.70
65765;BMP180;52915;53.718;19.946;2023-06-19T01:25:10;100307.40;;;14.80
65765;BMP180;52915;53.718;19.946;2023-06-19T01:30:18;100302.20;;;14.80
65765;BMP180;52915;53.718;19.946;2023-06-19T01:35:28;100307.00;;;14.60
65765;BMP180;52915;53.718;19.946;2023-06-19T01:40:33;100312.80;;;14.40
65765;BMP180;52915;53.718;19.946;2023-06-19T01:45:39;100314.40;;;14.40
65765;BMP180;52915;53.718;19.946;2023-06-19T01:50:48;100331.60;;;14.50
65765;BMP180;52915;53.718;19.946;2023-06-19T01:55:52;100323.60;;;14.50
65765;BMP180;52915;53.718;19.946;2023-06-19T02:00:56;100325.40;;;14.50
65765;BMP180;52915;53.718;19.946;2023-06-19T02:06:01;100326.20;;;14.40
65765;BMP180;52915;53.718;19.946;2023-06-19T02:11:06;100335.40;;;14.30
65765;BMP180;52915;53.718;19.946;2023-06-19T02:16:10;100335.00;;;14.30
65765;BMP180;52915;53.718;19.946;2023-06-19T02:21:14;100321.60;;;14.40
65765;BMP180;52915;53.718;19.946;2023-06-19T02:26:19;100318.40;;;14.50
65765;BMP180;52915;53.718;19.946;2023-06-19T02:31:23;100329.80;;;14.40
65765;BMP180;52915;53.718;19.946;2023-06-19T02:36:27;100330.20;;;14.30
65765;BMP180;52915;53.718;19.946;2023-06-19T02:41:32;100334.40;;;14.30
65765;BMP180;52915;53.718;19.946;2023-06-19T02:46:37;100337.20;;;14.46
65765;BMP180;52915;53.718;19.946;2023-06-19T02:51:41;100335.80;;;14.52
65765;BMP180;52915;53.718;19.946;2023-06-19T02:56:45;100335.20;;;14.50
65765;BMP180;52915;53.718;19.946;2023-06-19T03:01:50;100327.00;;;14.40
65765;BMP180;52915;53.718;19.946;2023-06-19T03:06:54;100335.80;;;14.50
65765;BMP180;52915;53.718;19.946;2023-06-19T03:11:59;100339.20;;;14.60
65765;BMP180;52915;53.718;19.946;2023-06-19T03:17:03;100331.40;;;14.60
65765;BMP180;52915;53.718;19.946;2023-06-19T03:22:08;100319.80;;;14.60
65765;BMP180;52915;53.718;19.946;2023-06-19T03:27:13;100323.60;;;14.76
65765;BMP180;52915;53.718;19.946;2023-06-19T03:32:17;100324.20;;;14.90
65765;BMP180;52915;53.718;19.946;2023-06-19T03:37:22;100327.20;;;15.10
65765;BMP180;52915;53.718;19.946;2023-06-19T03:42:26;100320.00;;;15.10
65765;BMP180;52915;53.718;19.946;2023-06-19T03:47:30;100318.00;;;15.24
65765;BMP180;52915;53.718;19.946;2023-06-19T03:52:36;100312.80;;;15.50
65765;BMP180;52915;53.718;19.946;2023-06-19T03:57:40;100310.40;;;15.70
65765;BMP180;52915;53.718;19.946;2023-06-19T04:02:45;100306.40;;;15.80
65765;BMP180;52915;53.718;19.946;2023-06-19T04:07:52;100299.80;;;15.80
65765;BMP180;52915;53.718;19.946;2023-06-19T04:12:56;100297.80;;;15.94
65765;BMP180;52915;53.718;19.946;2023-06-19T04:18:01;100297.60;;;16.20
65765;BMP180;52915;53.718;19.946;2023-06-19T04:23:05;100296.80;;;16.50
65765;BMP180;52915;53.718;19.946;2023-06-19T04:28:10;100301.60;;;16.70
65765;BMP180;52915;53.718;19.946;2023-06-19T04:33:14;100300.40;;;17.00
65765;BMP180;52915;53.718;19.946;2023-06-19T04:38:18;100301.00;;;17.20
65765;BMP180;52915;53.718;19.946;2023-06-19T04:43:22;100305.20;;;17.24
65765;BMP180;52915;53.718;19.946;2023-06-19T04:48:28;100313.20;;;17.40
65765;BMP180;52915;53.718;19.946;2023-06-19T04:53:33;100318.20;;;17.70
65765;BMP180;52915;53.718;19.946;2023-06-19T04:58:38;100320.40;;;18.10
65765;BMP180;52915;53.718;19.946;2023-06-19T05:03:50;100322.60;;;18.22
65765;BMP180;52915;53.718;19.946;2023-06-19T05:08:54;100322.00;;;18.38
65765;BMP180;52915;53.718;19.946;2023-06-19T05:13:59;100330.40;;;18.50
65765;BMP180;52915;53.718;19.946;2023-06-19T05:19:03;100329.40;;;18.78
65765;BMP180;52915;53.718;19.946;2023-06-19T05:24:08;100335.60;;;19.14
65765;BMP180;52915;53.718;19.946;2023-06-19T05:29:12;100341.00;;;19.40
65765;BMP180;52915;53.718;19.946;2023-06-19T05:34:17;100340.00;;;19.60
65765;BMP180;52915;53.718;19.946;2023-06-19T05:39:21;100346.60;;;19.82
65765;BMP180;52915;53.718;19.946;2023-06-19T05:44:26;100349.80;;;20.18
65765;BMP180;52915;53.718;19.946;2023-06-19T05:49:30;100353.80;;;20.32
65765;BMP180;52915;53.718;19.946;2023-06-19T05:54:35;100356.60;;;20.60
65765;BMP180;52915;53.718;19.946;2023-06-19T05:59:40;100354.80;;;20.74
65765;BMP180;52915;53.718;19.946;2023-06-19T06:04:45;100357.40;;;21.10
65765;BMP180;52915;53.718;19.946;2023-06-19T06:09:50;100357.20;;;21.40
65765;BMP180;52915;53.718;19.946;2023-06-19T06:14:54;100359.80;;;21.56
65765;BMP180;52915;53.718;19.946;2023-06-19T06:19:59;100363.20;;;21.94
65765;BMP180;52915;53.718;19.946;2023-06-19T06:25:05;100367.80;;;22.22
65765;BMP180;52915;53.718;19.946;2023-06-19T06:30:10;100366.40;;;22.48
65765;BMP180;52915;53.718;19.946;2023-06-19T06:35:16;100374.40;;;22.66
65765;BMP180;52915;53.718;19.946;2023-06-19T06:40:20;100378.40;;;22.90
65765;BMP180;52915;53.718;19.946;2023-06-19T06:45:25;100377.80;;;23.00
65765;BMP180;52915;53.718;19.946;2023-06-19T06:50:30;100384.40;;;23.10
65765;BMP180;52915;53.718;19.946;2023-06-19T06:55:36;100381.60;;;23.40
65765;BMP180;52915;53.718;19.946;2023-06-19T07:00:41;100383.40;;;23.60
65765;BMP180;52915;53.718;19.946;2023-06-19T07:05:46;100386.80;;;23.80
65765;BMP180;52915;53.718;19.946;2023-06-19T07:10:51;100389.00;;;24.00
65765;BMP180;52915;53.718;19.946;2023-06-19T07:15:55;100391.00;;;24.20
65765;BMP180;52915;53.718;19.946;2023-06-19T07:20:59;100391.00;;;24.40
65765;BMP180;52915;53.718;19.946;2023-06-19T07:26:04;100393.20;;;24.76
65765;BMP180;52915;53.718;19.946;2023-06-19T07:31:08;100400.80;;;25.10
65765;BMP180;52915;53.718;19.946;2023-06-19T07:36:13;100395.00;;;24.90
65765;BMP180;52915;53.718;19.946;2023-06-19T07:41:18;100396.80;;;24.80
65765;BMP180;52915;53.718;19.946;2023-06-19T07:46:22;100401.40;;;24.60
65765;BMP180;52915;53.718;19.946;2023-06-19T07:51:28;100398.40;;;24.80
65765;BMP180;52915;53.718;19.946;2023-06-19T07:56:32;100406.20;;;25.10
65765;BMP180;52915;53.718;19.946;2023-06-19T08:01:37;100408.00;;;25.20
65765;BMP180;52915;53.718;19.946;2023-06-19T08:06:42;100408.00;;;25.40
65765;BMP180;52915;53.718;19.946;2023-06-19T08:11:47;100412.60;;;25.70
65765;BMP180;52915;53.718;19.946;2023-06-19T08:16:52;100414.40;;;25.94
65765;BMP180;52915;53.718;19.946;2023-06-19T08:21:56;100418.80;;;26.30
65765;BMP180;52915;53.718;19.946;2023-06-19T08:27:00;100418.40;;;26.40
65765;BMP180;52915;53.718;19.946;2023-06-19T08:32:05;100420.60;;;26.60
65765;BMP180;52915;53.718;19.946;2023-06-19T08:37:09;100421.60;;;26.90
65765;BMP180;52915;53.718;19.946;2023-06-19T08:42:13;100421.00;;;27.20
65765;BMP180;52915;53.718;19.946;2023-06-19T08:47:18;100420.80;;;27.30
65765;BMP180;52915;53.718;19.946;2023-06-19T08:52:22;100421.40;;;27.20
65765;BMP180;52915;53.718;19.946;2023-06-19T08:57:38;100429.40;;;27.58
65765;BMP180;52915;53.718;19.946;2023-06-19T09:02:45;100429.60;;;27.80
65765;BMP180;52915;53.718;19.946;2023-06-19T09:08:13;100425.40;;;28.10
65765;BMP180;52915;53.718;19.946;2023-06-19T09:13:19;100443.60;;;27.82
65765;BMP180;52915;53.718;19.946;2023-06-19T09:18:24;100431.00;;;27.60
65765;BMP180;52915;53.718;19.946;2023-06-19T09:23:28;100443.40;;;27.18
65765;BMP180;52915;53.718;19.946;2023-06-19T09:28:33;100432.20;;;27.10
65765;BMP180;52915;53.718;19.946;2023-06-19T09:33:39;100439.00;;;27.00
65765;BMP180;52915;53.718;19.946;2023-06-19T09:38:46;100417.60;;;27.12
65765;BMP180;52915;53.718;19.946;2023-06-19T09:43:55;100414.60;;;27.60
65765;BMP180;52915;53.718;19.946;2023-06-19T09:49:05;100409.20;;;27.90
65765;BMP180;52915;53.718;19.946;2023-06-19T09:54:10;100412.00;;;28.30
65765;BMP180;52915;53.718;19.946;2023-06-19T09:59:14;100413.40;;;28.70
65765;BMP180;52915;53.718;19.946;2023-06-19T10:04:19;100409.80;;;28.80
65765;BMP180;52915;53.718;19.946;2023-06-19T10:09:23;100409.40;;;29.04
65765;BMP180;52915;53.718;19.946;2023-06-19T10:14:28;100412.20;;;29.50
65765;BMP180;52915;53.718;19.946;2023-06-19T10:19:32;100425.20;;;29.10
65765;BMP180;52915;53.718;19.946;2023-06-19T10:24:36;100401.80;;;29.10
65765;BMP180;52915;53.718;19.946;2023-06-19T10:29:41;100410.60;;;29.20
65765;BMP180;52915;53.718;19.946;2023-06-19T10:34:58;100398.60;;;29.10
65765;BMP180;52915;53.718;19.946;2023-06-19T10:40:05;100398.20;;;29.42
65765;BMP180;52915;53.718;19.946;2023-06-19T10:45:14;100402.00;;;29.70
65765;BMP180;52915;53.718;19.946;2023-06-19T10:50:22;100401.00;;;29.80
65765;BMP180;52915;53.718;19.946;2023-06-19T10:55:28;100399.60;;;29.80
65765;BMP180;52915;53.718;19.946;2023-06-19T11:00:33;100400.80;;;29.80
65765;BMP180;52915;53.718;19.946;2023-06-19T11:05:44;100400.00;;;30.20
65765;BMP180;52915;53.718;19.946;2023-06-19T11:10:50;100394.00;;;30.50
65765;BMP180;52915;53.718;19.946;2023-06-19T11:15:54;100395.20;;;30.80
65765;BMP180;52915;53.718;19.946;2023-06-19T11:20:59;100393.00;;;30.90
65765;BMP180;52915;53.718;19.946;2023-06-19T11:26:06;100390.40;;;30.80
65765;BMP180;52915;53.718;19.946;2023-06-19T11:31:11;100390.80;;;30.70
65765;BMP180;52915;53.718;19.946;2023-06-19T11:36:18;100395.20;;;30.90
65765;BMP180;52915;53.718;19.946;2023-06-19T11:41:28;100388.00;;;30.40
65765;BMP180;52915;53.718;19.946;2023-06-19T11:46:34;100391.00;;;30.36
65765;BMP180;52915;53.718;19.946;2023-06-19T11:51:38;100390.80;;;30.40
65765;BMP180;52915;53.718;19.946;2023-06-19T11:56:43;100383.80;;;30.50
65765;BMP180;52915;53.718;19.946;2023-06-19T12:01:47;100380.40;;;31.10
65765;BMP180;52915;53.718;19.946;2023-06-19T12:06:53;100380.80;;;31.50
65765;BMP180;52915;53.718;19.946;2023-06-19T12:11:57;100398.80;;;31.30
65765;BMP180;52915;53.718;19.946;2023-06-19T12:17:02;100405.40;;;30.50
65765;BMP180;52915;53.718;19.946;2023-06-19T12:22:07;100385.20;;;30.12
65765;BMP180;52915;53.718;19.946;2023-06-19T12:27:11;100394.00;;;30.30
65765;BMP180;52915;53.718;19.946;2023-06-19T12:32:15;100396.80;;;30.20
65765;BMP180;52915;53.718;19.946;2023-06-19T12:37:21;100394.80;;;30.06
65765;BMP180;52915;53.718;19.946;2023-06-19T12:42:25;100391.60;;;29.60
65765;BMP180;52915;53.718;19.946;2023-06-19T12:47:29;100385.40;;;29.30
65765;BMP180;52915;53.718;19.946;2023-06-19T12:52:34;100384.80;;;29.20
65765;BMP180;52915;53.718;19.946;2023-06-19T12:57:38;100390.00;;;29.20
65765;BMP180;52915;53.718;19.946;2023-06-19T13:02:44;100390.60;;;29.08
65765;BMP180;52915;53.718;19.946;2023-06-19T13:07:51;100384.60;;;29.00
65765;BMP180;52915;53.718;19.946;2023-06-19T13:12:56;100386.00;;;29.00
65765;BMP180;52915;53.718;19.946;2023-06-19T13:18:02;100384.60;;;29.00
65765;BMP180;52915;53.718;19.946;2023-06-19T13:23:06;100379.40;;;29.20
65765;BMP180;52915;53.718;19.946;2023-06-19T13:28:11;100368.20;;;29.90
65765;BMP180;52915;53.718;19.946;2023-06-19T13:33:20;100374.20;;;30.58
65765;BMP180;52915;53.718;19.946;2023-06-19T13:38:26;100371.00;;;30.88
65765;BMP180;52915;53.718;19.946;2023-06-19T13:43:31;100356.80;;;31.20
65765;BMP180;52915;53.718;19.946;2023-06-19T13:48:36;100361.40;;;31.00
65765;BMP180;52915;53.718;19.946;2023-06-19T13:53:40;100353.20;;;31.08
65765;BMP180;52915;53.718;19.946;2023-06-19T13:58:44;100350.60;;;31.08
65765;BMP180;52915;53.718;19.946;2023-06-19T14:03:49;100346.20;;;31.10
65765;BMP180;52915;53.718;19.946;2023-06-19T14:08:54;100348.60;;;31.30
65765;BMP180;52915;53.718;19.946;2023-06-19T14:14:00;100347.00;;;31.60
65765;BMP180;52915;53.718;19.946;2023-06-19T14:19:04;100344.40;;;31.40
65765;BMP180;52915;53.718;19.946;2023-06-19T14:24:09;100348.20;;;31.40
65765;BMP180;52915;53.718;19.946;2023-06-19T14:29:13;100348.40;;;31.40
65765;BMP180;52915;53.718;19.946;2023-06-19T14:34:20;100353.60;;;31.40
65765;BMP180;52915;53.718;19.946;2023-06-19T14:39:24;100351.40;;;31.50
65765;BMP180;52915;53.718;19.946;2023-06-19T14:44:29;100348.40;;;31.40
65765;BMP180;52915;53.718;19.946;2023-06-19T14:49:33;100355.60;;;30.64
65765;BMP180;52915;53.718;19.946;2023-06-19T14:54:37;100342.60;;;30.00
65765;BMP180;52915;53.718;19.946;2023-06-19T14:59:42;100339.20;;;30.22
65765;BMP180;52915;53.718;19.946;2023-06-19T15:04:46;100338.60;;;30.40
65765;BMP180;52915;53.718;19.946;2023-06-19T15:10:09;100332.40;;;30.50
65765;BMP180;52915;53.718;19.946;2023-06-19T15:15:14;100335.40;;;30.50
65765;BMP180;52915;53.718;19.946;2023-06-19T15:20:18;100338.20;;;30.70
65765;BMP180;52915;53.718;19.946;2023-06-19T15:25:24;100335.20;;;30.60
65765;BMP180;52915;53.718;19.946;2023-06-19T15:30:28;100326.80;;;31.34
65765;BMP180;52915;53.718;19.946;2023-06-19T15:35:34;100320.00;;;32.76
65765;BMP180;52915;53.718;19.946;2023-06-19T15:40:41;100320.60;;;33.84
65765;BMP180;52915;53.718;19.946;2023-06-19T15:45:47;100320.40;;;34.82
65765;BMP180;52915;53.718;19.946;2023-06-19T15:50:53;100327.00;;;35.50
65765;BMP180;52915;53.718;19.946;2023-06-19T15:55:59;100325.80;;;35.70
65765;BMP180;52915;53.718;19.946;2023-06-19T16:01:03;100329.00;;;36.16
65765;BMP180;52915;53.718;19.946;2023-06-19T16:06:08;100326.40;;;36.30
65765;BMP180;52915;53.718;19.946;2023-06-19T16:11:13;100349.00;;;34.44
65765;BMP180;52915;53.718;19.946;2023-06-19T16:16:17;100325.00;;;34.10
65765;BMP180;52915;53.718;19.946;2023-06-19T16:21:21;100332.40;;;34.24
65765;BMP180;52915;53.718;19.946;2023-06-19T16:26:26;100335.20;;;34.34
65765;BMP180;52915;53.718;19.946;2023-06-19T16:31:30;100333.60;;;34.36
65765;BMP180;52915;53.718;19.946;2023-06-19T16:36:35;100336.80;;;34.50
65765;BMP180;52915;53.718;19.946;2023-06-19T16:41:39;100337.40;;;34.76
65765;BMP180;52915;53.718;19.946;2023-06-19T16:46:43;100338.40;;;35.12
65765;BMP180;52915;53.718;19.946;2023-06-19T16:51:48;100336.40;;;35.30
65765;BMP180;52915;53.718;19.946;2023-06-19T16:56:53;100345.20;;;35.30
65765;BMP180;52915;53.718;19.946;2023-06-19T17:01:57;100343.20;;;35.00
65765;BMP180;52915;53.718;19.946;2023-06-19T17:07:02;100357.40;;;34.14
65765;BMP180;52915;53.718;19.946;2023-06-19T17:12:07;100356.40;;;32.56
65765;BMP180;52915;53.718;19.946;2023-06-19T17:17:11;100359.80;;;31.36
65765;BMP180;52915;53.718;19.946;2023-06-19T17:22:16;100356.60;;;30.50
65765;BMP180;52915;53.718;19.946;2023-06-19T17:27:20;100354.80;;;29.96
65765;BMP180;52915;53.718;19.946;2023-06-19T17:32:24;100355.20;;;29.58
65765;BMP180;52915;53.718;19.946;2023-06-19T17:37:30;100362.60;;;29.20
65765;BMP180;52915;53.718;19.946;2023-06-19T17:42:36;100368.80;;;28.80
65765;BMP180;52915;53.718;19.946;2023-06-19T17:47:41;100367.00;;;28.50
65765;BMP180;52915;53.718;19.946;2023-06-19T17:52:46;100369.60;;;28.20
65765;BMP180;52915;53.718;19.946;2023-06-19T17:57:50;100369.60;;;27.90
65765;BMP180;52915;53.718;19.946;2023-06-19T18:02:54;100374.80;;;27.60
65765;BMP180;52915;53.718;19.946;2023-06-19T18:08:00;100372.60;;;27.40
65765;BMP180;52915;53.718;19.946;2023-06-19T18:13:05;100378.40;;;27.10
65765;BMP180;52915;53.718;19.946;2023-06-19T18:18:09;100381.40;;;26.90
65765;BMP180;52915;53.718;19.946;2023-06-19T18:23:14;100390.60;;;26.62
65765;BMP180;52915;53.718;19.946;2023-06-19T18:28:18;100393.20;;;26.40
65765;BMP180;52915;53.718;19.946;2023-06-19T18:33:22;100393.20;;;26.20
65765;BMP180;52915;53.718;19.946;2023-06-19T18:38:26;100392.00;;;26.00
65765;BMP180;52915;53.718;19.946;2023-06-19T18:43:31;100398.60;;;25.72
65765;BMP180;52915;53.718;19.946;2023-06-19T18:48:38;100398.60;;;25.50
65765;BMP180;52915;53.718;19.946;2023-06-19T18:53:42;100402.40;;;25.20
65765;BMP180;52915;53.718;19.946;2023-06-19T18:58:47;100404.00;;;25.00
65765;BMP180;52915;53.718;19.946;2023-06-19T19:03:51;100412.60;;;24.70
65765;BMP180;52915;53.718;19.946;2023-06-19T19:08:56;100418.00;;;24.50
65765;BMP180;52915;53.718;19.946;2023-06-19T19:14:02;100423.20;;;24.20
65765;BMP180;52915;53.718;19.946;2023-06-19T19:19:07;100437.80;;;23.90
65765;BMP180;52915;53.718;19.946;2023-06-19T19:24:12;100440.00;;;23.70
65765;BMP180;52915;53.718;19.946;2023-06-19T19:29:17;100443.20;;;23.60
65765;BMP180;52915;53.718;19.946;2023-06-19T19:34:21;100440.80;;;23.40
65765;BMP180;52915;53.718;19.946;2023-06-19T19:39:29;100441.80;;;23.20
65765;BMP180;52915;53.718;19.946;2023-06-19T19:44:37;100448.40;;;22.90
65765;BMP180;52915;53.718;19.946;2023-06-19T19:49:42;100445.60;;;22.68
65765;BMP180;52915;53.718;19.946;2023-06-19T19:54:46;100441.60;;;22.38
65765;BMP180;52915;53.718;19.946;2023-06-19T19:59:51;100446.20;;;22.10
65765;BMP180;52915;53.718;19.946;2023-06-19T20:04:55;100437.20;;;21.90
65765;BMP180;52915;53.718;19.946;2023-06-19T20:09:59;100440.80;;;21.80
65765;BMP180;52915;53.718;19.946;2023-06-19T20:15:07;100439.60;;;21.80
65765;BMP180;52915;53.718;19.946;2023-06-19T20:20:12;100443.20;;;21.70
65765;BMP180;52915;53.718;19.946;2023-06-19T20:25:16;100448.00;;;21.70
65765;BMP180;52915;53.718;19.946;2023-06-19T20:30:22;100446.00;;;21.60
65765;BMP180;52915;53.718;19.946;2023-06-19T20:35:29;100438.60;;;21.50
65765;BMP180;52915;53.718;19.946;2023-06-19T20:40:35;100435.20;;;21.40
65765;BMP180;52915;53.718;19.946;2023-06-19T20:45:39;100437.80;;;21.40
65765;BMP180;52915;53.718;19.946;2023-06-19T20:50:46;100441.40;;;21.50
65765;BMP180;52915;53.718;19.946;2023-06-19T20:55:50;100436.60;;;21.58
65765;BMP180;52915;53.718;19.946;2023-06-19T21:00:55;100437.60;;;21.50
65765;BMP180;52915;53.718;19.946;2023-06-19T21:05:59;100436.20;;;21.40
65765;BMP180;52915;53.718;19.946;2023-06-19T21:11:03;100435.20;;;21.28
65765;BMP180;52915;53.718;19.946;2023-06-19T21:16:07;100433.80;;;21.18
65765;BMP180;52915;53.718;19.946;2023-06-19T21:21:12;100432.40;;;21.10
65765;BMP180;52915;53.718;19.946;2023-06-19T21:26:16;100434.60;;;21.00
65765;BMP180;52915;53.718;19.946;2023-06-19T21:31:20;100441.60;;;20.90
65765;BMP180;52915;53.718;19.946;2023-06-19T21:36:25;100439.80;;;20.90
65765;BMP180;52915;53.718;19.946;2023-06-19T21:41:29;100447.40;;;20.96
65765;BMP180;52915;53.718;19.946;2023-06-19T21:46:33;100452.40;;;21.00
65765;BMP180;52915;53.718;19.946;2023-06-19T21:51:39;100446.20;;;21.00
65765;BMP180;52915;53.718;19.946;2023-06-19T21:56:44;100444.80;;;20.90
65765;BMP180;52915;53.718;19.946;2023-06-19T22:01:48;100449.80;;;20.80
65765;BMP180;52915;53.718;19.946;2023-06-19T22:06:53;100445.40;;;20.80
65765;BMP180;52915;53.718;19.946;2023-06-19T22:11:57;100440.40;;;20.66
65765;BMP180;52915;53.718;19.946;2023-06-19T22:17:01;100437.40;;;20.58
65765;BMP180;52915;53.718;19.946;2023-06-19T22:22:07;100442.00;;;20.56
65765;BMP180;52915;53.718;19.946;2023-06-19T22:27:11;100444.00;;;20.60
65765;BMP180;52915;53.718;19.946;2023-06-19T22:32:16;100445.00;;;20.60
65765;BMP180;52915;53.718;19.946;2023-06-19T22:37:20;100437.80;;;20.56
65765;BMP180;52915;53.718;19.946;2023-06-19T22:42:24;100431.80;;;20.40
65765;BMP180;52915;53.718;19.946;2023-06-19T22:47:28;100441.60;;;20.20
65765;BMP180;52915;53.718;19.946;2023-06-19T22:52:33;100443.60;;;20.10
65765;BMP180;52915;53.718;19.946;2023-06-19T22:57:38;100442.20;;;20.20
65765;BMP180;52915;53.718;19.946;2023-06-19T23:02:44;100438.60;;;20.20
65765;BMP180;52915;53.718;19.946;2023-06-19T23:07:48;100432.40;;;20.20
65765;BMP180;52915;53.718;19.946;2023-06-19T23:12:52;100435.40;;;20.10
65765;BMP180;52915;53.718;19.946;2023-06-19T23:17:56;100435.00;;;20.10
65765;BMP180;52915;53.718;19.946;2023-06-19T23:23:00;100434.20;;;20.10
65765;BMP180;52915;53.718;19.946;2023-06-19T23:28:08;100431.20;;;20.20
65765;BMP180;52915;53.718;19.946;2023-06-19T23:33:12;100430.80;;;20.10
65765;BMP180;52915;53.718;19.946;2023-06-19T23:38:16;100436.40;;;20.00
65765;BMP180;52915;53.718;19.946;2023-06-19T23:43:20;100435.60;;;19.98
65765;BMP180;52915;53.718;19.946;2023-06-19T23:48:25;100435.60;;;19.96
65765;BMP180;52915;53.718;19.946;2023-06-19T23:53:29;100440.80;;;20.00
65765;BMP180;52915;53.718;19.946;2023-06-19T23:58:32;100444.40;;;20.10
